createdAt,value
2023-04-16T00:00:03.358Z,7.98
2023-04-16T00:02:58.890Z,7.98
2023-04-16T00:05:27.546Z,7.97
2023-04-16T00:07:55.236Z,7.99
2023-04-16T00:10:22.941Z,8.01
2023-04-16T00:12:50.690Z,8.02
2023-04-16T00:15:18.399Z,8.03
2023-04-16T00:17:46.433Z,8.02
2023-04-16T00:20:14.236Z,8.00
2023-04-16T00:22:41.884Z,7.99
2023-04-16T00:25:09.663Z,7.96
2023-04-16T00:27:37.333Z,7.95
2023-04-16T00:30:05.959Z,7.93
2023-04-16T00:32:33.812Z,7.90
2023-04-16T00:35:01.583Z,7.86
2023-04-16T00:37:30.301Z,7.83
2023-04-16T00:39:58.055Z,7.81
2023-04-16T00:42:25.878Z,7.79
2023-04-16T00:44:53.647Z,7.78
2023-04-16T00:47:21.738Z,7.78
2023-04-16T00:49:50.153Z,7.79
2023-04-16T00:52:17.846Z,7.80
2023-04-16T00:54:46.027Z,7.84
2023-04-16T00:57:14.443Z,7.87
2023-04-16T00:59:42.246Z,7.90
2023-04-16T01:02:09.965Z,7.91
2023-04-16T01:04:37.959Z,7.94
2023-04-16T01:07:06.025Z,7.92
2023-04-16T01:09:33.766Z,7.91
2023-04-16T01:12:02.043Z,7.90
2023-04-16T01:14:31.646Z,7.87
2023-04-16T01:16:59.353Z,7.83
2023-04-16T01:19:27.089Z,7.81
2023-04-16T01:21:54.831Z,7.80
2023-04-16T01:24:22.430Z,7.79
2023-04-16T01:26:50.256Z,7.80
2023-04-16T01:29:18.040Z,7.81
2023-04-16T01:31:46.919Z,7.82
2023-04-16T01:34:24.098Z,7.85
2023-04-16T01:36:51.845Z,7.85
2023-04-16T01:39:19.640Z,7.86
2023-04-16T01:41:47.346Z,7.86
2023-04-16T01:44:15.054Z,7.85
2023-04-16T01:46:44.148Z,7.83
2023-04-16T01:49:12.285Z,7.83
2023-04-16T01:51:39.947Z,7.80
2023-04-16T01:54:07.961Z,7.76
2023-04-16T01:56:35.769Z,7.74
2023-04-16T01:59:03.611Z,7.73
2023-04-16T02:01:36.186Z,7.72
2023-04-16T02:04:04.286Z,7.73
2023-04-16T02:06:32.082Z,7.76
2023-04-16T02:08:59.771Z,7.77
2023-04-16T02:11:27.412Z,7.79
2023-04-16T02:13:56.303Z,7.82
2023-04-16T02:16:24.352Z,7.84
2023-04-16T02:19:01.812Z,7.84
2023-04-16T02:21:31.615Z,7.81
2023-04-16T02:23:59.475Z,7.78
2023-04-16T02:26:29.636Z,7.76
2023-04-16T02:29:00.550Z,7.72
2023-04-16T02:31:33.756Z,7.68
2023-04-16T02:34:01.753Z,7.65
2023-04-16T02:36:29.680Z,7.61
2023-04-16T02:38:57.899Z,7.59
2023-04-16T02:41:25.733Z,7.56
2023-04-16T02:43:53.453Z,7.54
2023-04-16T02:46:21.126Z,7.55
2023-04-16T02:48:49.008Z,7.57
2023-04-16T02:51:16.722Z,7.60
2023-04-16T02:53:46.093Z,7.62
2023-04-16T02:56:14.268Z,7.65
2023-04-16T02:58:42.227Z,7.67
2023-04-16T03:01:09.931Z,7.69
2023-04-16T03:03:37.867Z,7.70
2023-04-16T03:06:05.670Z,7.70
2023-04-16T03:08:33.497Z,7.68
2023-04-16T03:11:01.487Z,7.65
2023-04-16T03:13:29.261Z,7.62
2023-04-16T03:15:57.454Z,7.57
2023-04-16T03:18:25.309Z,7.52
2023-04-16T03:20:53.737Z,7.49
2023-04-16T03:23:21.469Z,7.46
2023-04-16T03:25:49.212Z,7.47
2023-04-16T03:28:18.904Z,7.48
2023-04-16T03:30:50.777Z,7.47
2023-04-16T03:33:18.866Z,7.50
2023-04-16T03:35:46.539Z,7.53
2023-04-16T03:38:14.763Z,7.59
2023-04-16T03:40:42.536Z,7.63
2023-04-16T03:43:10.493Z,7.65
2023-04-16T03:45:43.582Z,7.69
2023-04-16T03:48:12.047Z,7.67
2023-04-16T03:50:39.745Z,7.63
2023-04-16T03:53:08.803Z,7.61
2023-04-16T03:55:36.910Z,7.58
2023-04-16T03:58:04.973Z,7.54
2023-04-16T04:00:33.080Z,7.49
2023-04-16T04:03:06.638Z,7.47
2023-04-16T04:05:41.706Z,7.42
2023-04-16T04:08:11.203Z,7.40
2023-04-16T04:10:39.189Z,7.36
2023-04-16T04:13:07.327Z,7.31
2023-04-16T04:15:35.432Z,7.29
2023-04-16T04:18:03.231Z,7.29
2023-04-16T04:20:31.291Z,7.31
2023-04-16T04:22:59.324Z,7.33
2023-04-16T04:25:27.249Z,7.34
2023-04-16T04:27:55.293Z,7.35
2023-04-16T04:30:23.235Z,7.37
2023-04-16T04:32:51.006Z,7.36
2023-04-16T04:35:18.721Z,7.36
2023-04-16T04:37:48.866Z,7.39
2023-04-16T04:40:19.460Z,7.42
2023-04-16T04:42:47.454Z,7.42
2023-04-16T04:45:16.488Z,7.41
2023-04-16T04:47:44.196Z,7.43
2023-04-16T04:50:11.995Z,7.44
2023-04-16T04:52:39.697Z,7.43
2023-04-16T04:55:08.220Z,7.42
2023-04-16T04:57:36.699Z,7.39
2023-04-16T05:00:06.257Z,7.38
2023-04-16T05:02:41.071Z,7.41
2023-04-16T05:05:08.943Z,7.47
2023-04-16T05:07:36.816Z,7.53
2023-04-16T05:10:04.652Z,7.58
2023-04-16T05:12:32.281Z,7.64
2023-04-16T05:14:59.938Z,7.71
2023-04-16T05:17:27.689Z,7.80
2023-04-16T05:19:55.547Z,7.90
2023-04-16T05:22:23.247Z,7.96
2023-04-16T05:24:50.915Z,8.01
2023-04-16T05:27:18.600Z,8.04
2023-04-16T05:29:46.269Z,8.07
2023-04-16T05:32:13.997Z,8.05
2023-04-16T05:34:41.714Z,8.05
2023-04-16T05:37:09.337Z,8.06
2023-04-16T05:39:37.042Z,8.08
2023-04-16T05:42:04.676Z,8.10
2023-04-16T05:44:32.352Z,8.11
2023-04-16T05:47:00.172Z,8.10
2023-04-16T05:49:27.894Z,8.08
2023-04-16T05:51:55.656Z,8.07
2023-04-16T05:54:24.168Z,8.06
2023-04-16T05:56:51.878Z,8.08
2023-04-16T05:59:19.603Z,8.09
2023-04-16T06:01:47.301Z,8.08
2023-04-16T06:04:15.071Z,8.06
2023-04-16T06:06:42.960Z,8.05
2023-04-16T06:09:11.228Z,8.08
2023-04-16T06:11:39.284Z,8.10
2023-04-16T06:14:07.066Z,8.14
2023-04-16T06:16:34.704Z,8.21
2023-04-16T06:19:02.392Z,8.25
2023-04-16T06:21:31.646Z,8.23
2023-04-16T06:23:59.463Z,8.22
2023-04-16T06:26:27.163Z,8.22
2023-04-16T06:28:54.852Z,8.23
2023-04-16T06:31:22.669Z,8.26
2023-04-16T06:33:50.507Z,8.26
2023-04-16T06:36:18.328Z,8.26
2023-04-16T06:38:46.522Z,8.29
2023-04-16T06:41:14.617Z,8.34
2023-04-16T06:43:42.286Z,8.37
2023-04-16T06:46:10.339Z,8.40
2023-04-16T06:48:38.038Z,8.44
2023-04-16T06:51:05.763Z,8.46
2023-04-16T06:53:33.699Z,8.52
2023-04-16T06:56:01.439Z,8.51
2023-04-16T06:58:29.347Z,8.48
2023-04-16T07:00:57.211Z,8.46
2023-04-16T07:03:25.050Z,8.42
2023-04-16T07:05:53.094Z,8.35
2023-04-16T07:08:21.019Z,8.34
2023-04-16T07:10:48.781Z,8.32
2023-04-16T07:13:18.520Z,8.31
2023-04-16T07:15:46.196Z,8.36
2023-04-16T07:18:14.229Z,8.44
2023-04-16T07:20:42.590Z,8.52
2023-04-16T07:23:10.527Z,8.55
2023-04-16T07:25:38.236Z,8.58
2023-04-16T07:28:05.989Z,8.62
2023-04-16T07:30:34.486Z,8.63
2023-04-16T07:33:03.088Z,8.61
2023-04-16T07:35:31.155Z,8.57
2023-04-16T07:37:58.879Z,8.50
2023-04-16T07:40:26.551Z,8.43
2023-04-16T07:42:55.112Z,8.36
2023-04-16T07:45:23.677Z,8.29
2023-04-16T07:47:51.380Z,8.24
2023-04-16T07:50:19.478Z,8.24
2023-04-16T07:52:47.340Z,8.27
2023-04-16T07:55:15.330Z,8.35
2023-04-16T07:57:42.966Z,8.51
2023-04-16T08:00:11.381Z,8.66
2023-04-16T08:02:42.177Z,8.79
2023-04-16T08:05:11.202Z,8.91
2023-04-16T08:07:39.119Z,9.00
2023-04-16T08:10:07.344Z,9.08
2023-04-16T08:12:35.248Z,9.13
2023-04-16T08:15:03.651Z,9.17
2023-04-16T08:17:33.108Z,9.19
2023-04-16T08:20:01.670Z,9.20
2023-04-16T08:22:29.316Z,9.26
2023-04-16T08:24:57.333Z,9.33
2023-04-16T08:27:25.015Z,9.43
2023-04-16T08:29:52.642Z,9.50
2023-04-16T08:32:20.752Z,9.60
2023-04-16T08:34:48.671Z,9.72
2023-04-16T08:37:16.377Z,9.84
2023-04-16T08:39:44.012Z,9.92
2023-04-16T08:42:16.852Z,9.98
2023-04-16T08:44:49.273Z,10.06
2023-04-16T08:47:17.566Z,10.13
2023-04-16T08:49:48.718Z,10.24
2023-04-16T08:52:19.753Z,10.37
2023-04-16T08:55:03.581Z,10.50
2023-04-16T08:57:37.474Z,10.61
2023-04-16T09:00:07.431Z,10.72
2023-04-16T09:02:36.079Z,10.78
2023-04-16T09:05:06.520Z,10.83
2023-04-16T09:07:35.399Z,10.92
2023-04-16T09:10:03.355Z,11.03
2023-04-16T09:12:31.649Z,11.08
2023-04-16T09:15:01.067Z,11.17
2023-04-16T09:17:28.874Z,11.27
2023-04-16T09:19:56.737Z,11.43
2023-04-16T09:22:24.571Z,11.56
2023-04-16T09:24:52.250Z,11.67
2023-04-16T09:27:20.435Z,11.74
2023-04-16T09:29:49.706Z,11.78
2023-04-16T09:32:17.624Z,11.76
2023-04-16T09:34:55.882Z,11.76
2023-04-16T09:37:23.748Z,11.81
2023-04-16T09:40:08.387Z,11.83
2023-04-16T09:42:37.120Z,11.91
2023-04-16T09:45:06.189Z,12.02
2023-04-16T09:47:41.567Z,12.09
2023-04-16T09:50:12.496Z,12.10
2023-04-16T09:52:43.147Z,12.08
2023-04-16T09:55:11.096Z,12.06
2023-04-16T09:57:38.967Z,12.02
2023-04-16T10:00:09.100Z,11.95
2023-04-16T10:02:41.488Z,11.90
2023-04-16T10:05:09.693Z,11.88
2023-04-16T10:07:37.784Z,11.91
2023-04-16T10:10:05.745Z,12.04
2023-04-16T10:12:33.736Z,12.12
2023-04-16T10:15:01.799Z,12.19
2023-04-16T10:17:31.003Z,12.24
2023-04-16T10:19:59.900Z,12.35
2023-04-16T10:22:27.639Z,12.43
2023-04-16T10:24:55.545Z,12.48
2023-04-16T10:27:23.385Z,12.50
2023-04-16T10:29:51.464Z,12.53
2023-04-16T10:32:21.727Z,12.54
2023-04-16T10:34:49.559Z,12.59
2023-04-16T10:37:18.572Z,12.61
2023-04-16T10:39:46.286Z,12.58
2023-04-16T10:42:14.190Z,12.52
2023-04-16T10:44:45.060Z,12.39
2023-04-16T10:47:13.802Z,12.26
2023-04-16T10:49:42.589Z,12.17
2023-04-16T10:52:16.837Z,12.00
2023-04-16T10:54:46.337Z,11.85
2023-04-16T10:57:18.187Z,11.77
2023-04-16T10:59:46.365Z,11.73
2023-04-16T11:02:16.097Z,11.71
2023-04-16T11:04:45.533Z,11.71
2023-04-16T11:07:16.625Z,11.67
2023-04-16T11:09:51.169Z,11.62
2023-04-16T11:12:39.133Z,11.61
2023-04-16T11:15:13.610Z,11.59
2023-04-16T11:17:45.610Z,11.58
2023-04-16T11:20:31.379Z,11.55
2023-04-16T11:22:59.145Z,11.47
2023-04-16T11:25:29.764Z,11.43
2023-04-16T11:27:59.004Z,11.42
2023-04-16T11:30:30.908Z,11.41
2023-04-16T11:32:58.722Z,11.35
2023-04-16T11:35:27.160Z,11.32
2023-04-16T11:37:58.470Z,11.23
2023-04-16T11:40:29.755Z,11.21
2023-04-16T11:43:02.043Z,11.19
2023-04-16T11:45:29.811Z,11.19
2023-04-16T11:47:57.759Z,11.17
2023-04-16T11:50:27.199Z,11.19
2023-04-16T11:52:56.584Z,11.23
2023-04-16T11:55:24.743Z,11.23
2023-04-16T11:57:52.491Z,11.13
2023-04-16T12:00:23.142Z,11.06
2023-04-16T12:02:53.777Z,10.99
2023-04-16T12:05:38.863Z,10.92
2023-04-16T12:08:10.749Z,10.90
2023-04-16T12:10:52.931Z,10.85
2023-04-16T12:13:21.118Z,10.87
2023-04-16T12:15:48.798Z,10.91
2023-04-16T12:18:17.236Z,10.92
2023-04-16T12:20:45.271Z,10.94
2023-04-16T12:23:28.987Z,10.92
2023-04-16T12:26:02.264Z,10.86
2023-04-16T12:28:34.196Z,10.82
2023-04-16T12:31:02.603Z,10.77
2023-04-16T12:33:30.961Z,10.75
2023-04-16T12:35:58.699Z,10.71
2023-04-16T12:38:27.060Z,10.72
2023-04-16T12:40:57.356Z,10.73
2023-04-16T12:43:25.604Z,10.75
2023-04-16T12:45:53.444Z,10.75
2023-04-16T12:48:21.289Z,10.74
2023-04-16T12:50:48.965Z,10.76
2023-04-16T12:53:16.877Z,10.80
2023-04-16T12:55:45.358Z,10.82
2023-04-16T12:58:13.158Z,10.75
2023-04-16T13:00:40.857Z,10.74
2023-04-16T13:03:08.662Z,10.77
2023-04-16T13:05:36.485Z,10.77
2023-04-16T13:08:04.213Z,10.77
2023-04-16T13:10:31.913Z,10.77
2023-04-16T13:12:59.608Z,10.78
2023-04-16T13:15:27.344Z,10.75
2023-04-16T13:17:55.206Z,10.77
2023-04-16T13:20:24.534Z,10.76
2023-04-16T13:22:52.447Z,10.80
2023-04-16T13:25:20.398Z,10.82
2023-04-16T13:27:48.046Z,10.82
2023-04-16T13:30:17.324Z,10.83
2023-04-16T13:32:45.453Z,10.84
2023-04-16T13:35:13.179Z,10.86
2023-04-16T13:37:40.864Z,10.91
2023-04-16T13:40:08.986Z,10.98
2023-04-16T13:42:36.839Z,11.04
2023-04-16T13:45:04.775Z,11.10
2023-04-16T13:47:32.563Z,11.16
2023-04-16T13:50:00.919Z,11.20
2023-04-16T13:52:28.566Z,11.21
2023-04-16T13:54:57.841Z,11.23
2023-04-16T13:57:28.318Z,11.23
2023-04-16T13:59:56.286Z,11.20
2023-04-16T14:02:25.912Z,11.21
2023-04-16T14:04:54.065Z,11.22
2023-04-16T14:07:25.563Z,11.19
2023-04-16T14:09:53.704Z,11.14
2023-04-16T14:12:21.424Z,11.09
2023-04-16T14:14:49.131Z,11.06
2023-04-16T14:17:16.783Z,11.05
2023-04-16T14:19:44.507Z,11.03
2023-04-16T14:22:12.202Z,11.01
2023-04-16T14:24:39.857Z,11.00
2023-04-16T14:27:08.053Z,10.97
2023-04-16T14:29:36.449Z,10.95
2023-04-16T14:32:04.580Z,10.95
2023-04-16T14:34:32.444Z,10.97
2023-04-16T14:37:00.171Z,10.99
2023-04-16T14:39:27.857Z,11.00
2023-04-16T14:41:55.758Z,11.00
2023-04-16T14:44:23.443Z,11.01
2023-04-16T14:46:51.455Z,11.00
2023-04-16T14:49:19.134Z,10.97
2023-04-16T14:51:47.031Z,10.92
2023-04-16T14:54:14.760Z,10.91
2023-04-16T14:56:42.787Z,10.90
2023-04-16T14:59:11.124Z,10.92
2023-04-16T15:01:42.283Z,10.96
2023-04-16T15:04:10.256Z,11.01
2023-04-16T15:06:38.396Z,11.05
2023-04-16T15:09:07.422Z,11.09
2023-04-16T15:11:35.316Z,11.14
2023-04-16T15:14:03.056Z,11.19
2023-04-16T15:16:30.896Z,11.20
2023-04-16T15:18:58.666Z,11.18
2023-04-16T15:21:27.916Z,11.18
2023-04-16T15:23:55.661Z,11.18
2023-04-16T15:26:23.357Z,11.18
2023-04-16T15:28:51.285Z,11.13
2023-04-16T15:31:20.777Z,11.05
2023-04-16T15:33:48.766Z,11.02
2023-04-16T15:36:16.494Z,10.92
2023-04-16T15:38:44.207Z,10.83
2023-04-16T15:41:12.002Z,10.74
2023-04-16T15:43:39.722Z,10.65
2023-04-16T15:46:08.590Z,10.53
2023-04-16T15:48:36.377Z,10.43
2023-04-16T15:51:04.126Z,10.31
2023-04-16T15:53:31.852Z,10.20
2023-04-16T15:56:00.100Z,10.14
2023-04-16T15:58:27.816Z,10.16
2023-04-16T16:00:55.537Z,10.20
2023-04-16T16:03:23.536Z,10.24
2023-04-16T16:05:51.430Z,10.27
2023-04-16T16:08:19.082Z,10.34
2023-04-16T16:10:46.846Z,10.40
2023-04-16T16:13:18.057Z,10.39
2023-04-16T16:15:46.261Z,10.37
2023-04-16T16:18:14.007Z,10.42
2023-04-16T16:20:41.791Z,10.45
2023-04-16T16:23:09.705Z,10.46
2023-04-16T16:25:37.598Z,10.46
2023-04-16T16:28:06.691Z,10.42
2023-04-16T16:30:34.957Z,10.35
2023-04-16T16:33:02.666Z,10.28
2023-04-16T16:35:31.091Z,10.19
2023-04-16T16:37:59.409Z,10.10
2023-04-16T16:40:27.596Z,10.03
2023-04-16T16:42:55.666Z,9.95
2023-04-16T16:45:25.970Z,9.91
2023-04-16T16:47:54.647Z,9.86
2023-04-16T16:50:22.608Z,9.84
2023-04-16T16:52:50.379Z,9.81
2023-04-16T16:55:18.952Z,9.79
2023-04-16T16:57:46.871Z,9.78
2023-04-16T17:00:16.093Z,9.75
2023-04-16T17:02:44.430Z,9.74
2023-04-16T17:05:12.612Z,9.74
2023-04-16T17:07:40.493Z,9.75
2023-04-16T17:10:10.993Z,9.76
2023-04-16T17:12:38.729Z,9.74
2023-04-16T17:15:06.762Z,9.71
2023-04-16T17:17:34.592Z,9.69
2023-04-16T17:20:08.008Z,9.68
2023-04-16T17:22:36.299Z,9.65
2023-04-16T17:25:04.506Z,9.60
2023-04-16T17:27:34.306Z,9.56
2023-04-16T17:30:03.003Z,9.51
2023-04-16T17:32:32.540Z,9.46
2023-04-16T17:35:01.760Z,9.35
2023-04-16T17:37:29.465Z,9.23
2023-04-16T17:39:57.096Z,9.15
2023-04-16T17:42:24.862Z,9.08
2023-04-16T17:44:53.149Z,9.02
2023-04-16T17:47:20.913Z,8.95
2023-04-16T17:49:48.746Z,8.91
2023-04-16T17:52:16.476Z,8.85
2023-04-16T17:54:44.791Z,8.78
2023-04-16T17:57:12.306Z,8.71
2023-04-16T17:59:40.106Z,8.67
2023-04-16T18:02:07.841Z,8.66
2023-04-16T18:04:36.051Z,8.65
2023-04-16T18:07:03.971Z,8.65
2023-04-16T18:09:32.017Z,8.63
2023-04-16T18:11:59.750Z,8.61
2023-04-16T18:14:27.550Z,8.60
2023-04-16T18:16:55.258Z,8.57
2023-04-16T18:19:22.999Z,8.52
2023-04-16T18:21:50.736Z,8.47
2023-04-16T18:24:18.542Z,8.45
2023-04-16T18:26:47.118Z,8.43
2023-04-16T18:29:15.372Z,8.43
2023-04-16T18:31:44.116Z,8.44
2023-04-16T18:34:12.571Z,8.44
2023-04-16T18:36:40.791Z,8.44
2023-04-16T18:39:08.872Z,8.46
2023-04-16T18:41:37.165Z,8.45
2023-04-16T18:44:04.921Z,8.45
2023-04-16T18:46:32.735Z,8.45
2023-04-16T18:49:00.596Z,8.44
2023-04-16T18:51:28.463Z,8.43
2023-04-16T18:53:56.332Z,8.40
2023-04-16T18:56:24.339Z,8.39
2023-04-16T18:58:52.250Z,8.36
2023-04-16T19:01:20.457Z,8.28
2023-04-16T19:03:48.365Z,8.22
2023-04-16T19:06:16.253Z,8.16
2023-04-16T19:08:44.055Z,8.10
2023-04-16T19:11:11.785Z,8.03
2023-04-16T19:13:39.745Z,7.96
2023-04-16T19:16:11.386Z,7.89
2023-04-16T19:18:39.825Z,7.82
2023-04-16T19:21:07.855Z,7.72
2023-04-16T19:23:35.579Z,7.64
2023-04-16T19:26:03.628Z,7.54
2023-04-16T19:28:31.762Z,7.42
2023-04-16T19:30:59.467Z,7.35
2023-04-16T19:33:27.139Z,7.30
2023-04-16T19:35:54.952Z,7.27
2023-04-16T19:38:22.613Z,7.23
2023-04-16T19:40:50.701Z,7.20
2023-04-16T19:43:18.376Z,7.19
2023-04-16T19:45:46.768Z,7.18
2023-04-16T19:48:14.638Z,7.20
2023-04-16T19:50:42.544Z,7.22
2023-04-16T19:53:11.263Z,7.28
2023-04-16T19:55:39.472Z,7.33
2023-04-16T19:58:07.615Z,7.37
2023-04-16T20:00:40.668Z,7.43
2023-04-16T20:03:08.711Z,7.48
2023-04-16T20:05:36.594Z,7.54
2023-04-16T20:08:04.593Z,7.61
2023-04-16T20:10:32.252Z,7.67
2023-04-16T20:13:00.007Z,7.76
2023-04-16T20:15:27.846Z,7.83
2023-04-16T20:17:56.418Z,7.87
2023-04-16T20:20:24.348Z,7.87
2023-04-16T20:22:52.042Z,7.87
2023-04-16T20:25:20.430Z,7.86
2023-04-16T20:27:48.164Z,7.85
2023-04-16T20:30:16.246Z,7.85
2023-04-16T20:32:44.178Z,7.83
2023-04-16T20:35:12.032Z,7.82
2023-04-16T20:37:42.030Z,7.81
2023-04-16T20:40:10.973Z,7.81
2023-04-16T20:42:40.802Z,7.81
2023-04-16T20:45:08.962Z,7.84
2023-04-16T20:47:36.632Z,7.89
2023-04-16T20:50:04.652Z,7.97
2023-04-16T20:52:32.593Z,8.03
2023-04-16T20:55:00.691Z,8.05
2023-04-16T20:57:29.660Z,8.06
2023-04-16T20:59:58.453Z,8.06
2023-04-16T21:02:28.013Z,8.03
2023-04-16T21:04:56.329Z,8.08
2023-04-16T21:07:24.242Z,8.17
2023-04-16T21:09:51.945Z,8.23
2023-04-16T21:12:19.590Z,8.32
2023-04-16T21:14:47.301Z,8.38
2023-04-16T21:17:14.987Z,8.42
2023-04-16T21:19:42.667Z,8.45
2023-04-16T21:22:10.504Z,8.43
2023-04-16T21:24:38.231Z,8.41
2023-04-16T21:27:06.112Z,8.40
2023-04-16T21:29:33.745Z,8.35
2023-04-16T21:32:01.636Z,8.30
2023-04-16T21:34:29.554Z,8.26
2023-04-16T21:36:57.244Z,8.23
2023-04-16T21:39:27.503Z,8.20
2023-04-16T21:41:56.395Z,8.18
2023-04-16T21:44:24.161Z,8.16
2023-04-16T21:46:51.884Z,8.13
2023-04-16T21:49:19.661Z,8.10
2023-04-16T21:51:47.455Z,8.08
2023-04-16T21:54:17.814Z,8.09
2023-04-16T21:56:46.148Z,8.09
2023-04-16T21:59:13.783Z,8.09
2023-04-16T22:01:41.504Z,8.10
2023-04-16T22:04:09.810Z,8.10
2023-04-16T22:06:37.908Z,8.07
2023-04-16T22:09:06.628Z,8.05
2023-04-16T22:11:34.292Z,8.04
2023-04-16T22:14:02.973Z,8.04
2023-04-16T22:16:31.029Z,8.03
2023-04-16T22:18:59.214Z,8.02
2023-04-16T22:21:27.398Z,8.02
2023-04-16T22:23:55.402Z,8.04
2023-04-16T22:26:23.097Z,8.05
2023-04-16T22:28:51.419Z,8.02
2023-04-16T22:31:19.276Z,7.98
2023-04-16T22:33:46.927Z,7.96
2023-04-16T22:36:14.716Z,7.91
2023-04-16T22:38:42.334Z,7.89
2023-04-16T22:41:10.143Z,7.86
2023-04-16T22:43:37.856Z,7.82
2023-04-16T22:46:06.760Z,7.80
2023-04-16T22:48:36.291Z,7.79
2023-04-16T22:51:07.318Z,7.79
2023-04-16T22:53:35.837Z,7.80
2023-04-16T22:56:03.529Z,7.84
2023-04-16T22:58:31.263Z,7.88
2023-04-16T23:00:59.540Z,7.91
2023-04-16T23:03:27.484Z,7.92
2023-04-16T23:05:55.335Z,7.92
2023-04-16T23:08:23.145Z,7.92
2023-04-16T23:10:50.954Z,7.95
2023-04-16T23:13:18.614Z,7.95
2023-04-16T23:15:47.225Z,7.94
2023-04-16T23:18:15.428Z,7.96
2023-04-16T23:20:43.152Z,7.96
2023-04-16T23:23:10.822Z,7.94
2023-04-16T23:25:40.627Z,7.96
2023-04-16T23:28:08.281Z,7.96
2023-04-16T23:30:36.084Z,7.96
2023-04-16T23:33:04.601Z,7.95
2023-04-16T23:35:32.453Z,7.95
2023-04-16T23:38:00.529Z,7.95
2023-04-16T23:40:28.356Z,7.95
2023-04-16T23:42:56.051Z,7.97
2023-04-16T23:45:23.820Z,8.01
2023-04-16T23:47:51.723Z,8.03
2023-04-16T23:50:19.620Z,8.00
2023-04-16T23:52:47.368Z,7.97
2023-04-16T23:55:15.164Z,7.94
2023-04-16T23:57:42.912Z,7.91
